sensor_id;sensor_type;location;lat;lon;timestamp;P1;durP1;ratioP1;P2;durP2;ratioP2
30249;SDS011;17064;47.974;13.826;2023-05-07T00:04:38;5.25;;;1.83;;
30249;SDS011;17064;47.974;13.826;2023-05-07T00:09:39;2.22;;;2.03;;
30249;SDS011;17064;47.974;13.826;2023-05-07T00:14:40;2.72;;;1.60;;
30249;SDS011;17064;47.974;13.826;2023-05-07T00:19:41;2.90;;;1.85;;
30249;SDS011;17064;47.974;13.826;2023-05-07T00:24:42;4.68;;;1.83;;
30249;SDS011;17064;47.974;13.826;2023-05-07T00:29:42;2.30;;;1.80;;
30249;SDS011;17064;47.974;13.826;2023-05-07T00:34:43;6.05;;;1.75;;
30249;SDS011;17064;47.974;13.826;2023-05-07T00:39:44;1.95;;;1.67;;
30249;SDS011;17064;47.974;13.826;2023-05-07T00:44:44;3.22;;;1.77;;
30249;SDS011;17064;47.974;13.826;2023-05-07T00:49:45;3.67;;;1.92;;
30249;SDS011;17064;47.974;13.826;2023-05-07T00:54:47;5.32;;;1.73;;
30249;SDS011;17064;47.974;13.826;2023-05-07T00:59:48;7.65;;;3.80;;
30249;SDS011;17064;47.974;13.826;2023-05-07T01:04:50;2.50;;;2.10;;
30249;SDS011;17064;47.974;13.826;2023-05-07T01:09:51;3.75;;;1.88;;
30249;SDS011;17064;47.974;13.826;2023-05-07T01:14:52;2.10;;;1.70;;
30249;SDS011;17064;47.974;13.826;2023-05-07T01:19:53;2.03;;;1.58;;
30249;SDS011;17064;47.974;13.826;2023-05-07T01:24:53;2.55;;;1.80;;
30249;SDS011;17064;47.974;13.826;2023-05-07T01:29:56;7.33;;;1.80;;
30249;SDS011;17064;47.974;13.826;2023-05-07T01:34:56;4.00;;;1.98;;
30249;SDS011;17064;47.974;13.826;2023-05-07T01:39:58;4.32;;;1.98;;
30249;SDS011;17064;47.974;13.826;2023-05-07T01:45:00;3.38;;;2.25;;
30249;SDS011;17064;47.974;13.826;2023-05-07T01:50:03;3.15;;;2.15;;
30249;SDS011;17064;47.974;13.826;2023-05-07T02:00:06;2.42;;;1.67;;
30249;SDS011;17064;47.974;13.826;2023-05-07T02:05:08;3.07;;;2.00;;
30249;SDS011;17064;47.974;13.826;2023-05-07T02:10:11;4.38;;;1.70;;
30249;SDS011;17064;47.974;13.826;2023-05-07T02:15:11;4.93;;;2.08;;
30249;SDS011;17064;47.974;13.826;2023-05-07T02:20:12;2.38;;;2.00;;
30249;SDS011;17064;47.974;13.826;2023-05-07T02:25:13;3.35;;;2.10;;
30249;SDS011;17064;47.974;13.826;2023-05-07T02:30:14;2.50;;;1.95;;
30249;SDS011;17064;47.974;13.826;2023-05-07T02:35:15;2.38;;;2.17;;
30249;SDS011;17064;47.974;13.826;2023-05-07T02:40:16;2.25;;;2.05;;
30249;SDS011;17064;47.974;13.826;2023-05-07T02:45:16;3.35;;;2.10;;
30249;SDS011;17064;47.974;13.826;2023-05-07T02:50:18;5.07;;;2.05;;
30249;SDS011;17064;47.974;13.826;2023-05-07T02:55:19;3.40;;;1.98;;
30249;SDS011;17064;47.974;13.826;2023-05-07T03:00:20;6.72;;;2.20;;
30249;SDS011;17064;47.974;13.826;2023-05-07T03:05:21;4.38;;;2.30;;
30249;SDS011;17064;47.974;13.826;2023-05-07T03:10:22;3.60;;;2.30;;
30249;SDS011;17064;47.974;13.826;2023-05-07T03:15:23;3.25;;;2.40;;
30249;SDS011;17064;47.974;13.826;2023-05-07T03:20:24;4.05;;;2.30;;
30249;SDS011;17064;47.974;13.826;2023-05-07T03:25:25;3.50;;;2.38;;
30249;SDS011;17064;47.974;13.826;2023-05-07T03:30:27;2.97;;;2.47;;
30249;SDS011;17064;47.974;13.826;2023-05-07T03:35:28;3.63;;;2.50;;
30249;SDS011;17064;47.974;13.826;2023-05-07T03:40:28;3.15;;;2.28;;
30249;SDS011;17064;47.974;13.826;2023-05-07T03:45:29;4.93;;;2.20;;
30249;SDS011;17064;47.974;13.826;2023-05-07T03:50:30;3.75;;;2.35;;
30249;SDS011;17064;47.974;13.826;2023-05-07T03:55:31;3.00;;;2.50;;
30249;SDS011;17064;47.974;13.826;2023-05-07T04:00:31;3.40;;;2.47;;
30249;SDS011;17064;47.974;13.826;2023-05-07T04:05:37;2.72;;;2.30;;
30249;SDS011;17064;47.974;13.826;2023-05-07T04:10:37;4.13;;;2.75;;
30249;SDS011;17064;47.974;13.826;2023-05-07T04:15:38;2.42;;;2.22;;
30249;SDS011;17064;47.974;13.826;2023-05-07T04:20:39;4.07;;;1.85;;
30249;SDS011;17064;47.974;13.826;2023-05-07T04:25:40;6.38;;;2.35;;
30249;SDS011;17064;47.974;13.826;2023-05-07T04:30:40;3.17;;;2.17;;
30249;SDS011;17064;47.974;13.826;2023-05-07T04:35:41;3.05;;;2.05;;
30249;SDS011;17064;47.974;13.826;2023-05-07T04:40:42;4.63;;;3.03;;
30249;SDS011;17064;47.974;13.826;2023-05-07T04:45:42;3.70;;;2.47;;
30249;SDS011;17064;47.974;13.826;2023-05-07T04:50:43;3.83;;;2.40;;
30249;SDS011;17064;47.974;13.826;2023-05-07T04:55:44;3.20;;;2.20;;
30249;SDS011;17064;47.974;13.826;2023-05-07T05:00:45;4.25;;;2.80;;
30249;SDS011;17064;47.974;13.826;2023-05-07T05:05:46;5.45;;;2.65;;
30249;SDS011;17064;47.974;13.826;2023-05-07T05:10:49;3.72;;;2.88;;
30249;SDS011;17064;47.974;13.826;2023-05-07T05:15:50;3.08;;;2.70;;
30249;SDS011;17064;47.974;13.826;2023-05-07T05:20:51;4.82;;;2.63;;
30249;SDS011;17064;47.974;13.826;2023-05-07T05:25:55;6.00;;;2.97;;
30249;SDS011;17064;47.974;13.826;2023-05-07T05:30:57;3.33;;;2.92;;
30249;SDS011;17064;47.974;13.826;2023-05-07T05:35:58;4.57;;;3.38;;
30249;SDS011;17064;47.974;13.826;2023-05-07T05:40:59;3.88;;;3.10;;
30249;SDS011;17064;47.974;13.826;2023-05-07T05:46:00;4.28;;;3.10;;
30249;SDS011;17064;47.974;13.826;2023-05-07T05:51:00;6.88;;;3.20;;
30249;SDS011;17064;47.974;13.826;2023-05-07T05:56:01;5.05;;;3.90;;
30249;SDS011;17064;47.974;13.826;2023-05-07T06:01:02;4.30;;;3.70;;
30249;SDS011;17064;47.974;13.826;2023-05-07T06:06:03;3.65;;;2.97;;
30249;SDS011;17064;47.974;13.826;2023-05-07T06:11:04;7.82;;;3.80;;
30249;SDS011;17064;47.974;13.826;2023-05-07T06:16:04;5.18;;;3.60;;
30249;SDS011;17064;47.974;13.826;2023-05-07T06:21:06;3.50;;;2.97;;
30249;SDS011;17064;47.974;13.826;2023-05-07T06:26:06;5.05;;;3.72;;
30249;SDS011;17064;47.974;13.826;2023-05-07T06:31:14;5.15;;;3.53;;
30249;SDS011;17064;47.974;13.826;2023-05-07T06:36:16;5.78;;;4.22;;
30249;SDS011;17064;47.974;13.826;2023-05-07T06:41:16;6.20;;;4.65;;
30249;SDS011;17064;47.974;13.826;2023-05-07T06:46:17;8.18;;;4.53;;
30249;SDS011;17064;47.974;13.826;2023-05-07T06:51:19;9.65;;;4.10;;
30249;SDS011;17064;47.974;13.826;2023-05-07T06:56:20;6.20;;;4.00;;
30249;SDS011;17064;47.974;13.826;2023-05-07T07:01:21;4.55;;;3.90;;
30249;SDS011;17064;47.974;13.826;2023-05-07T07:06:21;5.63;;;3.75;;
30249;SDS011;17064;47.974;13.826;2023-05-07T07:11:22;5.35;;;4.03;;
30249;SDS011;17064;47.974;13.826;2023-05-07T07:16:23;6.03;;;3.80;;
30249;SDS011;17064;47.974;13.826;2023-05-07T07:21:23;4.60;;;3.88;;
30249;SDS011;17064;47.974;13.826;2023-05-07T07:26:24;6.82;;;4.00;;
30249;SDS011;17064;47.974;13.826;2023-05-07T07:31:25;7.28;;;4.18;;
30249;SDS011;17064;47.974;13.826;2023-05-07T07:36:26;7.22;;;4.35;;
30249;SDS011;17064;47.974;13.826;2023-05-07T07:41:27;7.25;;;3.75;;
30249;SDS011;17064;47.974;13.826;2023-05-07T07:46:27;4.88;;;3.85;;
30249;SDS011;17064;47.974;13.826;2023-05-07T07:51:28;3.78;;;3.33;;
30249;SDS011;17064;47.974;13.826;2023-05-07T07:56:34;5.20;;;3.65;;
30249;SDS011;17064;47.974;13.826;2023-05-07T08:01:35;4.57;;;4.10;;
30249;SDS011;17064;47.974;13.826;2023-05-07T08:06:38;4.35;;;3.92;;
30249;SDS011;17064;47.974;13.826;2023-05-07T08:11:39;5.10;;;3.90;;
30249;SDS011;17064;47.974;13.826;2023-05-07T08:16:43;5.07;;;3.72;;
30249;SDS011;17064;47.974;13.826;2023-05-07T08:21:44;5.05;;;3.50;;
30249;SDS011;17064;47.974;13.826;2023-05-07T08:31:49;6.07;;;3.90;;
30249;SDS011;17064;47.974;13.826;2023-05-07T08:36:50;5.85;;;4.53;;
30249;SDS011;17064;47.974;13.826;2023-05-07T08:41:51;6.47;;;4.63;;
30249;SDS011;17064;47.974;13.826;2023-05-07T08:46:58;9.23;;;5.90;;
30249;SDS011;17064;47.974;13.826;2023-05-07T08:52:01;7.57;;;5.80;;
30249;SDS011;17064;47.974;13.826;2023-05-07T08:57:01;8.98;;;5.70;;
30249;SDS011;17064;47.974;13.826;2023-05-07T09:02:02;9.27;;;6.38;;
30249;SDS011;17064;47.974;13.826;2023-05-07T09:07:03;9.02;;;5.82;;
30249;SDS011;17064;47.974;13.826;2023-05-07T09:12:05;13.77;;;6.82;;
30249;SDS011;17064;47.974;13.826;2023-05-07T09:17:06;11.32;;;6.55;;
30249;SDS011;17064;47.974;13.826;2023-05-07T09:22:07;8.68;;;6.20;;
30249;SDS011;17064;47.974;13.826;2023-05-07T09:27:07;11.32;;;6.78;;
30249;SDS011;17064;47.974;13.826;2023-05-07T09:32:10;7.85;;;6.00;;
30249;SDS011;17064;47.974;13.826;2023-05-07T09:37:12;8.65;;;5.43;;
30249;SDS011;17064;47.974;13.826;2023-05-07T09:42:13;8.75;;;5.53;;
30249;SDS011;17064;47.974;13.826;2023-05-07T09:47:18;16.40;;;6.20;;
30249;SDS011;17064;47.974;13.826;2023-05-07T09:52:19;7.00;;;4.95;;
30249;SDS011;17064;47.974;13.826;2023-05-07T09:57:20;18.48;;;5.85;;
30249;SDS011;17064;47.974;13.826;2023-05-07T10:02:24;7.75;;;4.82;;
30249;SDS011;17064;47.974;13.826;2023-05-07T10:07:27;10.20;;;5.88;;
30249;SDS011;17064;47.974;13.826;2023-05-07T10:12:28;8.48;;;5.80;;
30249;SDS011;17064;47.974;13.826;2023-05-07T10:17:30;7.30;;;5.90;;
30249;SDS011;17064;47.974;13.826;2023-05-07T10:22:36;7.90;;;5.30;;
30249;SDS011;17064;47.974;13.826;2023-05-07T10:27:40;14.15;;;5.43;;
30249;SDS011;17064;47.974;13.826;2023-05-07T10:32:44;6.53;;;5.00;;
30249;SDS011;17064;47.974;13.826;2023-05-07T10:37:47;11.25;;;5.43;;
30249;SDS011;17064;47.974;13.826;2023-05-07T10:48:15;6.72;;;4.90;;
30249;SDS011;17064;47.974;13.826;2023-05-07T10:58:27;9.82;;;5.20;;
30249;SDS011;17064;47.974;13.826;2023-05-07T11:03:37;7.78;;;4.40;;
30249;SDS011;17064;47.974;13.826;2023-05-07T11:09:08;10.85;;;4.43;;
30249;SDS011;17064;47.974;13.826;2023-05-07T11:14:08;5.72;;;4.22;;
30249;SDS011;17064;47.974;13.826;2023-05-07T11:19:09;10.75;;;4.53;;
30249;SDS011;17064;47.974;13.826;2023-05-07T11:24:10;6.35;;;4.47;;
30249;SDS011;17064;47.974;13.826;2023-05-07T11:29:11;5.55;;;4.20;;
30249;SDS011;17064;47.974;13.826;2023-05-07T11:34:13;5.88;;;3.60;;
30249;SDS011;17064;47.974;13.826;2023-05-07T11:44:45;6.97;;;3.50;;
30249;SDS011;17064;47.974;13.826;2023-05-07T11:49:48;9.65;;;2.25;;
30249;SDS011;17064;47.974;13.826;2023-05-07T11:54:50;6.18;;;2.75;;
30249;SDS011;17064;47.974;13.826;2023-05-07T11:59:56;4.05;;;3.08;;
30249;SDS011;17064;47.974;13.826;2023-05-07T12:05:00;5.57;;;2.67;;
30249;SDS011;17064;47.974;13.826;2023-05-07T12:10:04;2.63;;;1.92;;
30249;SDS011;17064;47.974;13.826;2023-05-07T12:15:08;2.45;;;2.00;;
30249;SDS011;17064;47.974;13.826;2023-05-07T12:20:09;4.35;;;2.67;;
30249;SDS011;17064;47.974;13.826;2023-05-07T12:25:10;11.40;;;3.08;;
30249;SDS011;17064;47.974;13.826;2023-05-07T12:30:11;4.38;;;2.65;;
30249;SDS011;17064;47.974;13.826;2023-05-07T12:35:12;2.13;;;1.92;;
30249;SDS011;17064;47.974;13.826;2023-05-07T12:40:13;3.25;;;2.75;;
30249;SDS011;17064;47.974;13.826;2023-05-07T12:45:17;3.90;;;2.58;;
30249;SDS011;17064;47.974;13.826;2023-05-07T12:50:18;6.68;;;2.47;;
30249;SDS011;17064;47.974;13.826;2023-05-07T12:55:20;2.70;;;2.10;;
30249;SDS011;17064;47.974;13.826;2023-05-07T13:05:37;2.28;;;1.90;;
30249;SDS011;17064;47.974;13.826;2023-05-07T13:10:39;3.42;;;1.92;;
30249;SDS011;17064;47.974;13.826;2023-05-07T13:15:39;2.55;;;1.98;;
30249;SDS011;17064;47.974;13.826;2023-05-07T13:20:40;5.07;;;2.42;;
30249;SDS011;17064;47.974;13.826;2023-05-07T13:25:41;4.32;;;1.77;;
30249;SDS011;17064;47.974;13.826;2023-05-07T13:30:41;2.47;;;1.50;;
30249;SDS011;17064;47.974;13.826;2023-05-07T13:35:42;1.80;;;1.30;;
30249;SDS011;17064;47.974;13.826;2023-05-07T13:40:43;2.35;;;1.80;;
30249;SDS011;17064;47.974;13.826;2023-05-07T13:45:44;2.72;;;1.50;;
30249;SDS011;17064;47.974;13.826;2023-05-07T13:50:45;2.05;;;1.23;;
30249;SDS011;17064;47.974;13.826;2023-05-07T13:55:45;2.70;;;1.52;;
30249;SDS011;17064;47.974;13.826;2023-05-07T14:00:46;1.73;;;1.20;;
30249;SDS011;17064;47.974;13.826;2023-05-07T14:05:47;2.20;;;1.35;;
30249;SDS011;17064;47.974;13.826;2023-05-07T14:10:47;3.22;;;1.52;;
30249;SDS011;17064;47.974;13.826;2023-05-07T14:15:48;4.20;;;1.65;;
30249;SDS011;17064;47.974;13.826;2023-05-07T14:20:49;4.50;;;1.52;;
30249;SDS011;17064;47.974;13.826;2023-05-07T14:25:50;4.03;;;2.33;;
30249;SDS011;17064;47.974;13.826;2023-05-07T14:30:51;2.88;;;1.60;;
30249;SDS011;17064;47.974;13.826;2023-05-07T14:35:52;3.13;;;2.08;;
30249;SDS011;17064;47.974;13.826;2023-05-07T14:40:52;3.67;;;2.50;;
30249;SDS011;17064;47.974;13.826;2023-05-07T14:45:55;2.13;;;1.90;;
30249;SDS011;17064;47.974;13.826;2023-05-07T14:50:56;3.15;;;2.20;;
30249;SDS011;17064;47.974;13.826;2023-05-07T14:55:57;2.47;;;2.05;;
30249;SDS011;17064;47.974;13.826;2023-05-07T15:00:58;3.60;;;1.80;;
30249;SDS011;17064;47.974;13.826;2023-05-07T15:05:59;3.53;;;2.30;;
30249;SDS011;17064;47.974;13.826;2023-05-07T15:11:00;7.70;;;2.38;;
30249;SDS011;17064;47.974;13.826;2023-05-07T15:16:01;4.22;;;2.83;;
30249;SDS011;17064;47.974;13.826;2023-05-07T15:21:01;6.05;;;3.72;;
30249;SDS011;17064;47.974;13.826;2023-05-07T15:26:03;5.53;;;3.60;;
30249;SDS011;17064;47.974;13.826;2023-05-07T15:31:05;6.18;;;3.58;;
30249;SDS011;17064;47.974;13.826;2023-05-07T15:36:07;5.13;;;4.03;;
30249;SDS011;17064;47.974;13.826;2023-05-07T15:41:08;8.68;;;4.63;;
30249;SDS011;17064;47.974;13.826;2023-05-07T15:46:09;6.28;;;4.88;;
30249;SDS011;17064;47.974;13.826;2023-05-07T15:51:10;6.25;;;4.82;;
30249;SDS011;17064;47.974;13.826;2023-05-07T15:56:11;9.05;;;4.60;;
30249;SDS011;17064;47.974;13.826;2023-05-07T16:01:12;5.97;;;3.80;;
30249;SDS011;17064;47.974;13.826;2023-05-07T16:06:13;5.50;;;4.13;;
30249;SDS011;17064;47.974;13.826;2023-05-07T16:11:13;4.50;;;3.42;;
30249;SDS011;17064;47.974;13.826;2023-05-07T16:16:14;5.32;;;4.03;;
30249;SDS011;17064;47.974;13.826;2023-05-07T16:21:15;7.30;;;4.35;;
30249;SDS011;17064;47.974;13.826;2023-05-07T16:26:16;6.72;;;4.50;;
30249;SDS011;17064;47.974;13.826;2023-05-07T16:31:17;7.68;;;4.13;;
30249;SDS011;17064;47.974;13.826;2023-05-07T16:36:18;9.27;;;4.18;;
30249;SDS011;17064;47.974;13.826;2023-05-07T16:41:19;5.35;;;4.43;;
30249;SDS011;17064;47.974;13.826;2023-05-07T16:46:19;6.47;;;3.78;;
30249;SDS011;17064;47.974;13.826;2023-05-07T16:51:20;5.88;;;3.75;;
30249;SDS011;17064;47.974;13.826;2023-05-07T16:56:23;7.07;;;4.32;;
30249;SDS011;17064;47.974;13.826;2023-05-07T17:01:25;6.68;;;4.75;;
30249;SDS011;17064;47.974;13.826;2023-05-07T17:06:25;6.65;;;4.63;;
30249;SDS011;17064;47.974;13.826;2023-05-07T17:11:26;6.45;;;4.45;;
30249;SDS011;17064;47.974;13.826;2023-05-07T17:16:30;7.03;;;4.88;;
30249;SDS011;17064;47.974;13.826;2023-05-07T17:21:30;6.00;;;4.45;;
30249;SDS011;17064;47.974;13.826;2023-05-07T17:26:31;7.18;;;4.78;;
30249;SDS011;17064;47.974;13.826;2023-05-07T17:31:35;6.47;;;4.28;;
30249;SDS011;17064;47.974;13.826;2023-05-07T17:36:39;7.20;;;4.25;;
30249;SDS011;17064;47.974;13.826;2023-05-07T17:41:40;7.85;;;4.57;;
30249;SDS011;17064;47.974;13.826;2023-05-07T17:46:40;6.75;;;4.28;;
30249;SDS011;17064;47.974;13.826;2023-05-07T17:51:41;6.55;;;4.70;;
30249;SDS011;17064;47.974;13.826;2023-05-07T17:56:42;5.63;;;3.78;;
30249;SDS011;17064;47.974;13.826;2023-05-07T18:01:42;5.95;;;4.10;;
30249;SDS011;17064;47.974;13.826;2023-05-07T18:06:43;9.15;;;4.45;;
30249;SDS011;17064;47.974;13.826;2023-05-07T18:11:44;7.88;;;5.20;;
30249;SDS011;17064;47.974;13.826;2023-05-07T18:16:45;6.57;;;4.18;;
30249;SDS011;17064;47.974;13.826;2023-05-07T18:21:45;6.10;;;4.75;;
30249;SDS011;17064;47.974;13.826;2023-05-07T18:26:46;7.57;;;4.88;;
30249;SDS011;17064;47.974;13.826;2023-05-07T18:31:48;5.82;;;4.63;;
30249;SDS011;17064;47.974;13.826;2023-05-07T18:36:48;7.05;;;4.70;;
30249;SDS011;17064;47.974;13.826;2023-05-07T18:41:49;9.13;;;4.85;;
30249;SDS011;17064;47.974;13.826;2023-05-07T18:46:50;9.27;;;4.97;;
30249;SDS011;17064;47.974;13.826;2023-05-07T18:51:51;8.55;;;5.15;;
30249;SDS011;17064;47.974;13.826;2023-05-07T18:56:52;8.20;;;4.80;;
30249;SDS011;17064;47.974;13.826;2023-05-07T19:01:53;7.82;;;4.80;;
30249;SDS011;17064;47.974;13.826;2023-05-07T19:07:00;6.95;;;4.90;;
30249;SDS011;17064;47.974;13.826;2023-05-07T19:12:00;9.00;;;5.32;;
30249;SDS011;17064;47.974;13.826;2023-05-07T19:17:01;9.38;;;5.38;;
30249;SDS011;17064;47.974;13.826;2023-05-07T19:22:02;6.97;;;4.85;;
30249;SDS011;17064;47.974;13.826;2023-05-07T19:27:02;6.93;;;4.82;;
30249;SDS011;17064;47.974;13.826;2023-05-07T19:32:03;7.57;;;4.93;;
30249;SDS011;17064;47.974;13.826;2023-05-07T19:37:04;11.25;;;5.90;;
30249;SDS011;17064;47.974;13.826;2023-05-07T19:42:05;5.75;;;4.50;;
30249;SDS011;17064;47.974;13.826;2023-05-07T19:47:06;9.52;;;5.25;;
30249;SDS011;17064;47.974;13.826;2023-05-07T19:52:06;7.70;;;5.13;;
30249;SDS011;17064;47.974;13.826;2023-05-07T19:57:07;9.30;;;5.22;;
30249;SDS011;17064;47.974;13.826;2023-05-07T20:02:08;11.00;;;5.95;;
30249;SDS011;17064;47.974;13.826;2023-05-07T20:07:09;8.50;;;5.60;;
30249;SDS011;17064;47.974;13.826;2023-05-07T20:12:10;8.98;;;6.05;;
30249;SDS011;17064;47.974;13.826;2023-05-07T20:17:10;9.75;;;6.63;;
30249;SDS011;17064;47.974;13.826;2023-05-07T20:22:11;11.38;;;7.22;;
30249;SDS011;17064;47.974;13.826;2023-05-07T20:27:12;9.93;;;7.18;;
30249;SDS011;17064;47.974;13.826;2023-05-07T20:32:13;10.75;;;6.35;;
30249;SDS011;17064;47.974;13.826;2023-05-07T20:37:14;9.70;;;5.82;;
30249;SDS011;17064;47.974;13.826;2023-05-07T20:42:14;9.88;;;6.25;;
30249;SDS011;17064;47.974;13.826;2023-05-07T20:47:16;9.18;;;5.85;;
30249;SDS011;17064;47.974;13.826;2023-05-07T20:52:16;10.45;;;6.22;;
30249;SDS011;17064;47.974;13.826;2023-05-07T20:57:18;11.13;;;6.25;;
30249;SDS011;17064;47.974;13.826;2023-05-07T21:02:18;9.90;;;6.47;;
30249;SDS011;17064;47.974;13.826;2023-05-07T21:07:19;10.18;;;6.53;;
30249;SDS011;17064;47.974;13.826;2023-05-07T21:12:20;10.82;;;7.07;;
30249;SDS011;17064;47.974;13.826;2023-05-07T21:17:22;10.48;;;7.68;;
30249;SDS011;17064;47.974;13.826;2023-05-07T21:22:22;10.63;;;6.85;;
30249;SDS011;17064;47.974;13.826;2023-05-07T21:27:23;9.98;;;6.45;;
30249;SDS011;17064;47.974;13.826;2023-05-07T21:32:26;10.75;;;7.50;;
30249;SDS011;17064;47.974;13.826;2023-05-07T21:37:27;11.15;;;6.65;;
30249;SDS011;17064;47.974;13.826;2023-05-07T21:42:28;12.27;;;7.63;;
30249;SDS011;17064;47.974;13.826;2023-05-07T21:47:28;11.15;;;7.05;;
30249;SDS011;17064;47.974;13.826;2023-05-07T21:52:29;12.95;;;7.10;;
30249;SDS011;17064;47.974;13.826;2023-05-07T21:57:30;12.23;;;7.65;;
30249;SDS011;17064;47.974;13.826;2023-05-07T22:02:30;11.07;;;6.80;;
30249;SDS011;17064;47.974;13.826;2023-05-07T22:07:31;14.43;;;7.65;;
30249;SDS011;17064;47.974;13.826;2023-05-07T22:12:32;10.88;;;6.78;;
30249;SDS011;17064;47.974;13.826;2023-05-07T22:17:33;12.27;;;6.80;;
30249;SDS011;17064;47.974;13.826;2023-05-07T22:22:44;10.48;;;7.20;;
30249;SDS011;17064;47.974;13.826;2023-05-07T22:27:49;10.23;;;6.75;;
30249;SDS011;17064;47.974;13.826;2023-05-07T22:32:50;9.82;;;6.22;;
30249;SDS011;17064;47.974;13.826;2023-05-07T22:37:51;10.90;;;5.80;;
30249;SDS011;17064;47.974;13.826;2023-05-07T22:42:51;8.60;;;5.35;;
30249;SDS011;17064;47.974;13.826;2023-05-07T22:47:59;8.43;;;5.90;;
30249;SDS011;17064;47.974;13.826;2023-05-07T22:52:59;8.77;;;6.28;;
30249;SDS011;17064;47.974;13.826;2023-05-07T22:58:03;9.27;;;6.20;;
30249;SDS011;17064;47.974;13.826;2023-05-07T23:03:04;8.95;;;5.70;;
30249;SDS011;17064;47.974;13.826;2023-05-07T23:08:05;8.68;;;5.15;;
30249;SDS011;17064;47.974;13.826;2023-05-07T23:13:05;10.40;;;6.63;;
30249;SDS011;17064;47.974;13.826;2023-05-07T23:18:12;8.40;;;6.05;;
30249;SDS011;17064;47.974;13.826;2023-05-07T23:23:12;10.00;;;5.88;;
30249;SDS011;17064;47.974;13.826;2023-05-07T23:28:13;9.93;;;5.47;;
30249;SDS011;17064;47.974;13.826;2023-05-07T23:33:14;8.38;;;5.53;;
30249;SDS011;17064;47.974;13.826;2023-05-07T23:38:15;10.90;;;6.55;;
30249;SDS011;17064;47.974;13.826;2023-05-07T23:43:15;9.18;;;6.40;;
30249;SDS011;17064;47.974;13.826;2023-05-07T23:48:16;7.50;;;5.35;;
30249;SDS011;17064;47.974;13.826;2023-05-07T23:53:17;9.93;;;6.22;;
30249;SDS011;17064;47.974;13.826;2023-05-07T23:58:18;10.15;;;6.43;;
